sensor_id;sensor_type;location;lat;lon;timestamp;P1;durP1;ratioP1;P2;durP2;ratioP2
43670;SDS011;29267;50.906;7.248;2023-04-03T00:01:35;2.38;;;1.40;;
43670;SDS011;29267;50.906;7.248;2023-04-03T00:04:03;2.70;;;1.60;;
43670;SDS011;29267;50.906;7.248;2023-04-03T00:06:29;3.22;;;1.58;;
43670;SDS011;29267;50.906;7.248;2023-04-03T00:08:55;4.85;;;1.60;;
43670;SDS011;29267;50.906;7.248;2023-04-03T00:11:20;4.50;;;2.28;;
43670;SDS011;29267;50.906;7.248;2023-04-03T00:13:46;5.40;;;2.03;;
43670;SDS011;29267;50.906;7.248;2023-04-03T00:16:12;5.20;;;2.20;;
43670;SDS011;29267;50.906;7.248;2023-04-03T00:18:38;2.88;;;1.70;;
43670;SDS011;29267;50.906;7.248;2023-04-03T00:21:04;10.80;;;2.38;;
43670;SDS011;29267;50.906;7.248;2023-04-03T00:23:30;2.60;;;1.40;;
43670;SDS011;29267;50.906;7.248;2023-04-03T00:25:57;5.32;;;1.73;;
43670;SDS011;29267;50.906;7.248;2023-04-03T00:28:22;3.22;;;1.63;;
43670;SDS011;29267;50.906;7.248;2023-04-03T00:30:48;5.35;;;1.48;;
43670;SDS011;29267;50.906;7.248;2023-04-03T00:33:15;3.05;;;1.83;;
43670;SDS011;29267;50.906;7.248;2023-04-03T00:35:41;3.47;;;1.33;;
43670;SDS011;29267;50.906;7.248;2023-04-03T00:38:07;3.15;;;1.70;;
43670;SDS011;29267;50.906;7.248;2023-04-03T00:40:36;2.47;;;1.30;;
43670;SDS011;29267;50.906;7.248;2023-04-03T00:45:59;6.07;;;1.85;;
43670;SDS011;29267;50.906;7.248;2023-04-03T00:48:36;4.70;;;2.03;;
43670;SDS011;29267;50.906;7.248;2023-04-03T00:51:06;4.88;;;1.55;;
43670;SDS011;29267;50.906;7.248;2023-04-03T00:53:39;3.00;;;1.35;;
43670;SDS011;29267;50.906;7.248;2023-04-03T00:56:08;4.47;;;1.83;;
43670;SDS011;29267;50.906;7.248;2023-04-03T00:58:39;5.13;;;2.13;;
43670;SDS011;29267;50.906;7.248;2023-04-03T01:01:10;5.63;;;1.75;;
43670;SDS011;29267;50.906;7.248;2023-04-03T01:03:39;6.63;;;2.30;;
43670;SDS011;29267;50.906;7.248;2023-04-03T01:06:05;4.70;;;1.65;;
43670;SDS011;29267;50.906;7.248;2023-04-03T01:08:30;6.00;;;1.80;;
43670;SDS011;29267;50.906;7.248;2023-04-03T01:10:56;3.90;;;1.27;;
43670;SDS011;29267;50.906;7.248;2023-04-03T01:13:27;3.03;;;1.48;;
43670;SDS011;29267;50.906;7.248;2023-04-03T01:15:55;7.40;;;1.35;;
43670;SDS011;29267;50.906;7.248;2023-04-03T01:18:22;2.72;;;1.75;;
43670;SDS011;29267;50.906;7.248;2023-04-03T01:23:44;2.47;;;1.50;;
43670;SDS011;29267;50.906;7.248;2023-04-03T01:26:20;2.17;;;1.35;;
43670;SDS011;29267;50.906;7.248;2023-04-03T01:28:46;3.95;;;1.35;;
43670;SDS011;29267;50.906;7.248;2023-04-03T01:33:45;5.35;;;1.70;;
43670;SDS011;29267;50.906;7.248;2023-04-03T01:36:14;2.30;;;1.60;;
43670;SDS011;29267;50.906;7.248;2023-04-03T01:38:42;4.38;;;1.10;;
43670;SDS011;29267;50.906;7.248;2023-04-03T01:43:36;5.05;;;1.20;;
43670;SDS011;29267;50.906;7.248;2023-04-03T01:46:01;1.50;;;1.10;;
43670;SDS011;29267;50.906;7.248;2023-04-03T01:48:27;1.75;;;1.25;;
43670;SDS011;29267;50.906;7.248;2023-04-03T01:50:53;2.30;;;1.20;;
43670;SDS011;29267;50.906;7.248;2023-04-03T01:53:19;7.30;;;1.70;;
43670;SDS011;29267;50.906;7.248;2023-04-03T01:55:44;3.92;;;1.85;;
43670;SDS011;29267;50.906;7.248;2023-04-03T01:58:10;1.98;;;1.33;;
43670;SDS011;29267;50.906;7.248;2023-04-03T02:00:36;3.65;;;1.20;;
43670;SDS011;29267;50.906;7.248;2023-04-03T02:03:02;2.15;;;1.30;;
43670;SDS011;29267;50.906;7.248;2023-04-03T02:05:27;2.80;;;1.35;;
43670;SDS011;29267;50.906;7.248;2023-04-03T02:07:53;4.20;;;1.52;;
43670;SDS011;29267;50.906;7.248;2023-04-03T02:10:19;4.55;;;1.42;;
43670;SDS011;29267;50.906;7.248;2023-04-03T02:12:45;3.08;;;1.50;;
43670;SDS011;29267;50.906;7.248;2023-04-03T02:15:11;2.13;;;1.30;;
43670;SDS011;29267;50.906;7.248;2023-04-03T02:17:36;3.42;;;1.40;;
43670;SDS011;29267;50.906;7.248;2023-04-03T02:20:02;5.03;;;1.70;;
43670;SDS011;29267;50.906;7.248;2023-04-03T02:22:28;3.67;;;1.30;;
43670;SDS011;29267;50.906;7.248;2023-04-03T02:24:54;5.20;;;1.40;;
43670;SDS011;29267;50.906;7.248;2023-04-03T02:27:20;4.85;;;1.50;;
43670;SDS011;29267;50.906;7.248;2023-04-03T02:29:45;4.70;;;1.60;;
43670;SDS011;29267;50.906;7.248;2023-04-03T02:32:11;4.40;;;1.30;;
43670;SDS011;29267;50.906;7.248;2023-04-03T02:34:36;5.55;;;1.88;;
43670;SDS011;29267;50.906;7.248;2023-04-03T02:37:02;5.85;;;1.50;;
43670;SDS011;29267;50.906;7.248;2023-04-03T02:39:28;2.53;;;1.10;;
43670;SDS011;29267;50.906;7.248;2023-04-03T02:41:53;4.28;;;1.30;;
43670;SDS011;29267;50.906;7.248;2023-04-03T02:44:19;4.72;;;1.60;;
43670;SDS011;29267;50.906;7.248;2023-04-03T02:46:44;5.57;;;1.58;;
43670;SDS011;29267;50.906;7.248;2023-04-03T02:49:10;2.25;;;1.35;;
43670;SDS011;29267;50.906;7.248;2023-04-03T02:51:35;3.13;;;1.40;;
43670;SDS011;29267;50.906;7.248;2023-04-03T02:54:01;3.58;;;1.52;;
43670;SDS011;29267;50.906;7.248;2023-04-03T02:56:27;1.83;;;1.23;;
43670;SDS011;29267;50.906;7.248;2023-04-03T02:58:52;2.97;;;1.55;;
43670;SDS011;29267;50.906;7.248;2023-04-03T03:01:18;5.53;;;1.80;;
43670;SDS011;29267;50.906;7.248;2023-04-03T03:03:44;2.78;;;1.45;;
43670;SDS011;29267;50.906;7.248;2023-04-03T03:06:11;5.18;;;1.50;;
43670;SDS011;29267;50.906;7.248;2023-04-03T03:08:38;5.82;;;1.50;;
43670;SDS011;29267;50.906;7.248;2023-04-03T03:11:05;5.10;;;1.77;;
43670;SDS011;29267;50.906;7.248;2023-04-03T03:13:31;3.53;;;1.20;;
43670;SDS011;29267;50.906;7.248;2023-04-03T03:15:56;6.68;;;2.03;;
43670;SDS011;29267;50.906;7.248;2023-04-03T03:18:22;2.33;;;1.40;;
43670;SDS011;29267;50.906;7.248;2023-04-03T03:20:55;2.90;;;1.88;;
43670;SDS011;29267;50.906;7.248;2023-04-03T03:23:22;3.58;;;1.58;;
43670;SDS011;29267;50.906;7.248;2023-04-03T03:25:53;7.15;;;1.83;;
43670;SDS011;29267;50.906;7.248;2023-04-03T03:28:23;3.92;;;1.75;;
43670;SDS011;29267;50.906;7.248;2023-04-03T03:30:49;9.32;;;2.13;;
43670;SDS011;29267;50.906;7.248;2023-04-03T03:33:15;4.53;;;2.20;;
43670;SDS011;29267;50.906;7.248;2023-04-03T03:35:42;4.30;;;1.92;;
43670;SDS011;29267;50.906;7.248;2023-04-03T03:38:08;8.90;;;2.72;;
43670;SDS011;29267;50.906;7.248;2023-04-03T03:40:33;6.93;;;2.97;;
43670;SDS011;29267;50.906;7.248;2023-04-03T03:42:59;6.00;;;1.38;;
43670;SDS011;29267;50.906;7.248;2023-04-03T03:45:25;8.23;;;2.85;;
43670;SDS011;29267;50.906;7.248;2023-04-03T03:47:50;2.95;;;1.70;;
43670;SDS011;29267;50.906;7.248;2023-04-03T03:50:16;6.65;;;1.90;;
43670;SDS011;29267;50.906;7.248;2023-04-03T03:52:41;2.97;;;2.08;;
43670;SDS011;29267;50.906;7.248;2023-04-03T03:55:07;3.75;;;1.52;;
43670;SDS011;29267;50.906;7.248;2023-04-03T03:57:33;7.57;;;1.85;;
43670;SDS011;29267;50.906;7.248;2023-04-03T03:59:58;2.95;;;1.65;;
43670;SDS011;29267;50.906;7.248;2023-04-03T04:02:24;5.13;;;1.77;;
43670;SDS011;29267;50.906;7.248;2023-04-03T04:04:50;6.40;;;1.88;;
43670;SDS011;29267;50.906;7.248;2023-04-03T04:07:15;6.30;;;1.80;;
43670;SDS011;29267;50.906;7.248;2023-04-03T04:09:41;4.28;;;1.70;;
43670;SDS011;29267;50.906;7.248;2023-04-03T04:12:07;10.57;;;1.73;;
43670;SDS011;29267;50.906;7.248;2023-04-03T04:14:32;7.97;;;1.73;;
43670;SDS011;29267;50.906;7.248;2023-04-03T04:16:58;9.52;;;1.80;;
43670;SDS011;29267;50.906;7.248;2023-04-03T04:19:23;6.47;;;1.67;;
43670;SDS011;29267;50.906;7.248;2023-04-03T04:21:49;4.45;;;2.03;;
43670;SDS011;29267;50.906;7.248;2023-04-03T04:24:15;4.60;;;2.20;;
43670;SDS011;29267;50.906;7.248;2023-04-03T04:26:40;5.80;;;2.15;;
43670;SDS011;29267;50.906;7.248;2023-04-03T04:29:08;7.40;;;2.10;;
43670;SDS011;29267;50.906;7.248;2023-04-03T04:31:34;6.85;;;2.33;;
43670;SDS011;29267;50.906;7.248;2023-04-03T04:34:00;4.95;;;2.35;;
43670;SDS011;29267;50.906;7.248;2023-04-03T04:36:25;7.72;;;2.58;;
43670;SDS011;29267;50.906;7.248;2023-04-03T04:38:51;7.15;;;2.83;;
43670;SDS011;29267;50.906;7.248;2023-04-03T04:41:19;4.97;;;2.15;;
43670;SDS011;29267;50.906;7.248;2023-04-03T04:43:47;3.88;;;1.77;;
43670;SDS011;29267;50.906;7.248;2023-04-03T04:46:13;6.32;;;1.83;;
43670;SDS011;29267;50.906;7.248;2023-04-03T04:48:39;2.33;;;1.40;;
43670;SDS011;29267;50.906;7.248;2023-04-03T04:51:05;2.92;;;1.60;;
43670;SDS011;29267;50.906;7.248;2023-04-03T04:53:31;2.67;;;1.45;;
43670;SDS011;29267;50.906;7.248;2023-04-03T04:55:57;4.25;;;1.48;;
43670;SDS011;29267;50.906;7.248;2023-04-03T04:58:22;7.43;;;1.83;;
43670;SDS011;29267;50.906;7.248;2023-04-03T05:00:48;8.50;;;1.83;;
43670;SDS011;29267;50.906;7.248;2023-04-03T05:03:13;4.50;;;2.00;;
43670;SDS011;29267;50.906;7.248;2023-04-03T05:05:39;4.45;;;1.75;;
43670;SDS011;29267;50.906;7.248;2023-04-03T05:08:05;2.83;;;1.30;;
43670;SDS011;29267;50.906;7.248;2023-04-03T05:10:33;3.72;;;1.70;;
43670;SDS011;29267;50.906;7.248;2023-04-03T05:12:59;3.00;;;1.40;;
43670;SDS011;29267;50.906;7.248;2023-04-03T05:15:24;2.40;;;1.58;;
43670;SDS011;29267;50.906;7.248;2023-04-03T05:17:50;2.40;;;1.05;;
43670;SDS011;29267;50.906;7.248;2023-04-03T05:20:16;2.47;;;1.15;;
43670;SDS011;29267;50.906;7.248;2023-04-03T05:22:42;5.63;;;1.23;;
43670;SDS011;29267;50.906;7.248;2023-04-03T05:25:08;7.72;;;1.00;;
43670;SDS011;29267;50.906;7.248;2023-04-03T05:27:33;7.45;;;1.40;;
43670;SDS011;29267;50.906;7.248;2023-04-03T05:29:59;2.50;;;1.50;;
43670;SDS011;29267;50.906;7.248;2023-04-03T05:32:25;2.22;;;1.23;;
43670;SDS011;29267;50.906;7.248;2023-04-03T05:34:52;1.17;;;0.57;;
43670;SDS011;29267;50.906;7.248;2023-04-03T05:37:18;7.68;;;2.10;;
43670;SDS011;29267;50.906;7.248;2023-04-03T05:39:44;2.83;;;1.60;;
43670;SDS011;29267;50.906;7.248;2023-04-03T05:42:09;6.38;;;1.70;;
43670;SDS011;29267;50.906;7.248;2023-04-03T05:44:36;6.43;;;1.33;;
43670;SDS011;29267;50.906;7.248;2023-04-03T05:47:02;7.85;;;1.42;;
43670;SDS011;29267;50.906;7.248;2023-04-03T05:49:28;4.32;;;1.60;;
43670;SDS011;29267;50.906;7.248;2023-04-03T05:51:54;4.82;;;2.20;;
43670;SDS011;29267;50.906;7.248;2023-04-03T05:54:26;5.38;;;1.33;;
43670;SDS011;29267;50.906;7.248;2023-04-03T05:56:54;3.35;;;1.52;;
43670;SDS011;29267;50.906;7.248;2023-04-03T05:59:20;4.38;;;1.58;;
43670;SDS011;29267;50.906;7.248;2023-04-03T06:01:46;4.30;;;1.52;;
43670;SDS011;29267;50.906;7.248;2023-04-03T06:04:12;6.60;;;2.88;;
43670;SDS011;29267;50.906;7.248;2023-04-03T06:06:45;4.82;;;1.23;;
43670;SDS011;29267;50.906;7.248;2023-04-03T06:09:19;4.63;;;1.08;;
43670;SDS011;29267;50.906;7.248;2023-04-03T06:11:46;9.07;;;1.38;;
43670;SDS011;29267;50.906;7.248;2023-04-03T06:14:12;3.92;;;1.40;;
43670;SDS011;29267;50.906;7.248;2023-04-03T06:16:38;2.15;;;1.35;;
43670;SDS011;29267;50.906;7.248;2023-04-03T06:19:04;3.58;;;1.42;;
43670;SDS011;29267;50.906;7.248;2023-04-03T06:21:30;2.33;;;1.02;;
43670;SDS011;29267;50.906;7.248;2023-04-03T06:23:56;3.30;;;1.35;;
43670;SDS011;29267;50.906;7.248;2023-04-03T06:26:22;5.40;;;1.15;;
43670;SDS011;29267;50.906;7.248;2023-04-03T06:28:47;1.30;;;0.85;;
43670;SDS011;29267;50.906;7.248;2023-04-03T06:31:13;1.98;;;1.13;;
43670;SDS011;29267;50.906;7.248;2023-04-03T06:33:39;3.10;;;1.00;;
43670;SDS011;29267;50.906;7.248;2023-04-03T06:36:05;3.00;;;1.33;;
43670;SDS011;29267;50.906;7.248;2023-04-03T06:38:32;4.93;;;2.15;;
43670;SDS011;29267;50.906;7.248;2023-04-03T06:40:59;3.33;;;1.30;;
43670;SDS011;29267;50.906;7.248;2023-04-03T06:43:25;6.72;;;1.52;;
43670;SDS011;29267;50.906;7.248;2023-04-03T06:45:51;2.40;;;1.08;;
43670;SDS011;29267;50.906;7.248;2023-04-03T06:48:17;3.38;;;1.08;;
43670;SDS011;29267;50.906;7.248;2023-04-03T06:50:42;4.25;;;1.50;;
43670;SDS011;29267;50.906;7.248;2023-04-03T06:53:08;4.93;;;1.25;;
43670;SDS011;29267;50.906;7.248;2023-04-03T06:55:35;3.53;;;1.42;;
43670;SDS011;29267;50.906;7.248;2023-04-03T06:58:01;4.00;;;1.20;;
43670;SDS011;29267;50.906;7.248;2023-04-03T07:00:26;4.53;;;1.60;;
43670;SDS011;29267;50.906;7.248;2023-04-03T07:02:52;6.15;;;2.13;;
43670;SDS011;29267;50.906;7.248;2023-04-03T07:05:19;6.00;;;1.40;;
43670;SDS011;29267;50.906;7.248;2023-04-03T07:07:45;4.55;;;2.10;;
43670;SDS011;29267;50.906;7.248;2023-04-03T07:10:10;5.70;;;1.48;;
43670;SDS011;29267;50.906;7.248;2023-04-03T07:12:36;2.47;;;1.80;;
43670;SDS011;29267;50.906;7.248;2023-04-03T07:15:03;2.55;;;1.15;;
43670;SDS011;29267;50.906;7.248;2023-04-03T07:17:30;4.22;;;1.70;;
43670;SDS011;29267;50.906;7.248;2023-04-03T07:19:56;7.28;;;1.30;;
43670;SDS011;29267;50.906;7.248;2023-04-03T07:22:21;4.35;;;1.00;;
43670;SDS011;29267;50.906;7.248;2023-04-03T07:24:47;2.35;;;0.93;;
43670;SDS011;29267;50.906;7.248;2023-04-03T07:27:13;2.65;;;1.00;;
43670;SDS011;29267;50.906;7.248;2023-04-03T07:29:38;4.72;;;1.20;;
43670;SDS011;29267;50.906;7.248;2023-04-03T07:32:04;8.05;;;1.33;;
43670;SDS011;29267;50.906;7.248;2023-04-03T07:34:31;3.50;;;1.27;;
43670;SDS011;29267;50.906;7.248;2023-04-03T07:36:58;2.08;;;1.05;;
43670;SDS011;29267;50.906;7.248;2023-04-03T07:39:24;1.58;;;0.80;;
43670;SDS011;29267;50.906;7.248;2023-04-03T07:41:50;5.80;;;1.20;;
43670;SDS011;29267;50.906;7.248;2023-04-03T07:44:16;5.25;;;1.30;;
43670;SDS011;29267;50.906;7.248;2023-04-03T07:46:42;3.22;;;1.05;;
43670;SDS011;29267;50.906;7.248;2023-04-03T07:49:08;3.67;;;1.42;;
43670;SDS011;29267;50.906;7.248;2023-04-03T07:51:34;3.83;;;1.05;;
43670;SDS011;29267;50.906;7.248;2023-04-03T07:54:00;3.08;;;1.00;;
43670;SDS011;29267;50.906;7.248;2023-04-03T07:56:25;3.05;;;1.02;;
43670;SDS011;29267;50.906;7.248;2023-04-03T07:58:51;3.03;;;1.20;;
43670;SDS011;29267;50.906;7.248;2023-04-03T08:01:17;1.55;;;0.90;;
43670;SDS011;29267;50.906;7.248;2023-04-03T08:03:42;2.17;;;1.13;;
43670;SDS011;29267;50.906;7.248;2023-04-03T08:06:08;6.15;;;1.50;;
43670;SDS011;29267;50.906;7.248;2023-04-03T08:08:34;2.15;;;1.02;;
43670;SDS011;29267;50.906;7.248;2023-04-03T08:11:01;3.03;;;1.13;;
43670;SDS011;29267;50.906;7.248;2023-04-03T08:13:28;3.20;;;1.10;;
43670;SDS011;29267;50.906;7.248;2023-04-03T08:15:54;4.22;;;1.00;;
43670;SDS011;29267;50.906;7.248;2023-04-03T08:18:22;4.75;;;1.30;;
43670;SDS011;29267;50.906;7.248;2023-04-03T08:20:49;2.15;;;1.15;;
43670;SDS011;29267;50.906;7.248;2023-04-03T08:23:16;5.68;;;1.38;;
43670;SDS011;29267;50.906;7.248;2023-04-03T08:25:43;3.97;;;1.23;;
43670;SDS011;29267;50.906;7.248;2023-04-03T08:28:09;16.52;;;1.02;;
43670;SDS011;29267;50.906;7.248;2023-04-03T08:30:38;4.55;;;1.20;;
43670;SDS011;29267;50.906;7.248;2023-04-03T08:33:04;5.88;;;1.27;;
43670;SDS011;29267;50.906;7.248;2023-04-03T08:35:31;3.20;;;1.40;;
43670;SDS011;29267;50.906;7.248;2023-04-03T08:37:56;4.80;;;1.27;;
43670;SDS011;29267;50.906;7.248;2023-04-03T08:40:22;1.85;;;0.98;;
43670;SDS011;29267;50.906;7.248;2023-04-03T08:43:09;5.63;;;1.30;;
43670;SDS011;29267;50.906;7.248;2023-04-03T08:45:50;5.40;;;1.95;;
43670;SDS011;29267;50.906;7.248;2023-04-03T08:50:45;3.17;;;1.10;;
43670;SDS011;29267;50.906;7.248;2023-04-03T08:53:15;5.78;;;1.38;;
43670;SDS011;29267;50.906;7.248;2023-04-03T08:55:45;6.18;;;1.55;;
43670;SDS011;29267;50.906;7.248;2023-04-03T08:58:12;4.00;;;1.30;;
43670;SDS011;29267;50.906;7.248;2023-04-03T09:03:24;2.20;;;0.82;;
43670;SDS011;29267;50.906;7.248;2023-04-03T09:14:13;1.88;;;1.13;;
43670;SDS011;29267;50.906;7.248;2023-04-03T09:19:58;2.72;;;1.08;;
43670;SDS011;29267;50.906;7.248;2023-04-03T09:22:34;4.50;;;1.15;;
43670;SDS011;29267;50.906;7.248;2023-04-03T09:25:13;6.05;;;1.60;;
43670;SDS011;29267;50.906;7.248;2023-04-03T09:27:42;1.55;;;0.73;;
43670;SDS011;29267;50.906;7.248;2023-04-03T09:30:12;4.78;;;1.05;;
43670;SDS011;29267;50.906;7.248;2023-04-03T09:32:45;1.00;;;0.70;;
43670;SDS011;29267;50.906;7.248;2023-04-03T09:35:19;4.50;;;0.80;;
43670;SDS011;29267;50.906;7.248;2023-04-03T09:37:49;2.88;;;0.90;;
43670;SDS011;29267;50.906;7.248;2023-04-03T09:40:34;4.85;;;1.40;;
43670;SDS011;29267;50.906;7.248;2023-04-03T09:45:43;2.22;;;0.80;;
43670;SDS011;29267;50.906;7.248;2023-04-03T09:55:57;1.42;;;0.80;;
43670;SDS011;29267;50.906;7.248;2023-04-03T09:58:27;2.33;;;0.90;;
43670;SDS011;29267;50.906;7.248;2023-04-03T10:00:59;1.80;;;0.93;;
43670;SDS011;29267;50.906;7.248;2023-04-03T10:05:52;2.65;;;1.00;;
43670;SDS011;29267;50.906;7.248;2023-04-03T10:08:22;2.70;;;1.23;;
43670;SDS011;29267;50.906;7.248;2023-04-03T10:11:23;2.30;;;0.95;;
43670;SDS011;29267;50.906;7.248;2023-04-03T10:13:50;2.97;;;0.90;;
43670;SDS011;29267;50.906;7.248;2023-04-03T10:16:18;4.00;;;1.30;;
43670;SDS011;29267;50.906;7.248;2023-04-03T10:18:49;2.85;;;0.88;;
43670;SDS011;29267;50.906;7.248;2023-04-03T10:21:40;1.38;;;0.95;;
43670;SDS011;29267;50.906;7.248;2023-04-03T10:24:26;3.65;;;0.90;;
43670;SDS011;29267;50.906;7.248;2023-04-03T10:35:38;2.42;;;0.80;;
43670;SDS011;29267;50.906;7.248;2023-04-03T10:38:32;1.35;;;0.70;;
43670;SDS011;29267;50.906;7.248;2023-04-03T10:46:35;3.28;;;0.50;;
43670;SDS011;29267;50.906;7.248;2023-04-03T10:51:48;2.40;;;0.60;;
43670;SDS011;29267;50.906;7.248;2023-04-03T10:54:25;2.08;;;0.65;;
43670;SDS011;29267;50.906;7.248;2023-04-03T10:56:57;2.05;;;0.60;;
43670;SDS011;29267;50.906;7.248;2023-04-03T10:59:32;1.73;;;0.50;;
43670;SDS011;29267;50.906;7.248;2023-04-03T11:04:37;0.70;;;0.52;;
43670;SDS011;29267;50.906;7.248;2023-04-03T11:07:10;0.90;;;0.55;;
43670;SDS011;29267;50.906;7.248;2023-04-03T11:09:44;1.58;;;0.68;;
43670;SDS011;29267;50.906;7.248;2023-04-03T11:12:27;0.95;;;0.70;;
43670;SDS011;29267;50.906;7.248;2023-04-03T11:15:00;3.08;;;0.65;;
43670;SDS011;29267;50.906;7.248;2023-04-03T11:17:31;3.60;;;0.68;;
43670;SDS011;29267;50.906;7.248;2023-04-03T11:23:01;1.48;;;0.63;;
43670;SDS011;29267;50.906;7.248;2023-04-03T11:25:29;1.60;;;0.65;;
43670;SDS011;29267;50.906;7.248;2023-04-03T11:28:00;1.63;;;0.82;;
43670;SDS011;29267;50.906;7.248;2023-04-03T11:30:51;1.98;;;0.80;;
43670;SDS011;29267;50.906;7.248;2023-04-03T11:38:44;1.35;;;0.40;;
43670;SDS011;29267;50.906;7.248;2023-04-03T11:41:12;1.15;;;0.60;;
43670;SDS011;29267;50.906;7.248;2023-04-03T11:43:42;1.65;;;1.02;;
43670;SDS011;29267;50.906;7.248;2023-04-03T11:46:22;2.00;;;0.88;;
43670;SDS011;29267;50.906;7.248;2023-04-03T11:49:37;3.15;;;0.70;;
43670;SDS011;29267;50.906;7.248;2023-04-03T11:52:12;3.03;;;0.60;;
43670;SDS011;29267;50.906;7.248;2023-04-03T11:54:58;1.67;;;0.70;;
43670;SDS011;29267;50.906;7.248;2023-04-03T11:57:43;2.33;;;0.70;;
43670;SDS011;29267;50.906;7.248;2023-04-03T12:05:55;2.28;;;1.50;;
43670;SDS011;29267;50.906;7.248;2023-04-03T12:18:57;1.80;;;0.70;;
43670;SDS011;29267;50.906;7.248;2023-04-03T12:26:41;1.40;;;0.70;;
43670;SDS011;29267;50.906;7.248;2023-04-03T12:48:50;3.53;;;0.98;;
43670;SDS011;29267;50.906;7.248;2023-04-03T12:54:03;4.30;;;0.85;;
43670;SDS011;29267;50.906;7.248;2023-04-03T12:56:38;3.65;;;0.80;;
43670;SDS011;29267;50.906;7.248;2023-04-03T12:59:14;1.42;;;0.88;;
43670;SDS011;29267;50.906;7.248;2023-04-03T13:01:57;1.20;;;0.57;;
43670;SDS011;29267;50.906;7.248;2023-04-03T13:04:24;1.92;;;0.50;;
43670;SDS011;29267;50.906;7.248;2023-04-03T13:06:52;2.67;;;0.65;;
43670;SDS011;29267;50.906;7.248;2023-04-03T13:09:22;2.85;;;0.57;;
43670;SDS011;29267;50.906;7.248;2023-04-03T13:11:49;1.15;;;0.60;;
43670;SDS011;29267;50.906;7.248;2023-04-03T13:14:17;1.40;;;0.80;;
43670;SDS011;29267;50.906;7.248;2023-04-03T13:19:34;1.10;;;0.88;;
43670;SDS011;29267;50.906;7.248;2023-04-03T13:22:08;4.57;;;0.93;;
43670;SDS011;29267;50.906;7.248;2023-04-03T13:27:11;1.13;;;0.63;;
43670;SDS011;29267;50.906;7.248;2023-04-03T13:29:38;4.07;;;0.80;;
43670;SDS011;29267;50.906;7.248;2023-04-03T13:32:04;2.35;;;0.73;;
43670;SDS011;29267;50.906;7.248;2023-04-03T13:34:38;2.33;;;0.80;;
43670;SDS011;29267;50.906;7.248;2023-04-03T13:37:07;6.32;;;1.65;;
43670;SDS011;29267;50.906;7.248;2023-04-03T13:39:43;1.60;;;1.10;;
43670;SDS011;29267;50.906;7.248;2023-04-03T13:42:20;2.08;;;0.80;;
43670;SDS011;29267;50.906;7.248;2023-04-03T13:44:48;2.83;;;0.70;;
43670;SDS011;29267;50.906;7.248;2023-04-03T13:47:37;2.03;;;0.82;;
43670;SDS011;29267;50.906;7.248;2023-04-03T13:52:55;4.40;;;0.90;;
43670;SDS011;29267;50.906;7.248;2023-04-03T13:55:32;1.63;;;0.47;;
43670;SDS011;29267;50.906;7.248;2023-04-03T14:00:36;3.63;;;0.68;;
43670;SDS011;29267;50.906;7.248;2023-04-03T14:05:56;2.10;;;0.60;;
43670;SDS011;29267;50.906;7.248;2023-04-03T14:08:22;1.65;;;0.88;;
43670;SDS011;29267;50.906;7.248;2023-04-03T14:10:48;1.50;;;0.68;;
43670;SDS011;29267;50.906;7.248;2023-04-03T14:13:15;2.25;;;0.70;;
43670;SDS011;29267;50.906;7.248;2023-04-03T14:15:41;1.23;;;0.70;;
43670;SDS011;29267;50.906;7.248;2023-04-03T14:18:11;6.22;;;1.15;;
43670;SDS011;29267;50.906;7.248;2023-04-03T14:20:38;1.17;;;0.47;;
43670;SDS011;29267;50.906;7.248;2023-04-03T14:23:03;1.92;;;0.65;;
43670;SDS011;29267;50.906;7.248;2023-04-03T14:25:29;2.28;;;0.70;;
43670;SDS011;29267;50.906;7.248;2023-04-03T14:27:54;1.17;;;0.85;;
43670;SDS011;29267;50.906;7.248;2023-04-03T14:30:22;3.30;;;0.85;;
43670;SDS011;29267;50.906;7.248;2023-04-03T14:32:57;2.65;;;0.73;;
43670;SDS011;29267;50.906;7.248;2023-04-03T14:35:25;2.17;;;0.70;;
43670;SDS011;29267;50.906;7.248;2023-04-03T14:37:51;6.60;;;1.20;;
43670;SDS011;29267;50.906;7.248;2023-04-03T14:40:20;3.13;;;0.77;;
43670;SDS011;29267;50.906;7.248;2023-04-03T14:42:48;3.67;;;0.80;;
43670;SDS011;29267;50.906;7.248;2023-04-03T14:45:15;2.08;;;1.05;;
43670;SDS011;29267;50.906;7.248;2023-04-03T14:47:46;2.15;;;0.95;;
43670;SDS011;29267;50.906;7.248;2023-04-03T14:50:20;1.40;;;0.63;;
43670;SDS011;29267;50.906;7.248;2023-04-03T14:52:48;3.63;;;1.10;;
43670;SDS011;29267;50.906;7.248;2023-04-03T14:55:16;2.67;;;1.10;;
43670;SDS011;29267;50.906;7.248;2023-04-03T14:57:44;2.17;;;0.90;;
43670;SDS011;29267;50.906;7.248;2023-04-03T15:00:12;2.42;;;0.85;;
43670;SDS011;29267;50.906;7.248;2023-04-03T15:02:40;1.92;;;0.75;;
43670;SDS011;29267;50.906;7.248;2023-04-03T15:05:07;1.52;;;0.65;;
43670;SDS011;29267;50.906;7.248;2023-04-03T15:07:38;2.58;;;1.27;;
43670;SDS011;29267;50.906;7.248;2023-04-03T15:10:27;1.80;;;0.75;;
43670;SDS011;29267;50.906;7.248;2023-04-03T15:12:54;2.65;;;1.00;;
43670;SDS011;29267;50.906;7.248;2023-04-03T15:15:21;3.10;;;1.20;;
43670;SDS011;29267;50.906;7.248;2023-04-03T15:17:50;2.33;;;1.00;;
43670;SDS011;29267;50.906;7.248;2023-04-03T15:20:23;3.03;;;1.00;;
43670;SDS011;29267;50.906;7.248;2023-04-03T15:22:51;2.42;;;1.15;;
43670;SDS011;29267;50.906;7.248;2023-04-03T15:25:17;2.45;;;1.00;;
43670;SDS011;29267;50.906;7.248;2023-04-03T15:27:43;6.78;;;1.10;;
43670;SDS011;29267;50.906;7.248;2023-04-03T15:30:13;3.63;;;0.70;;
43670;SDS011;29267;50.906;7.248;2023-04-03T15:32:40;6.00;;;1.42;;
43670;SDS011;29267;50.906;7.248;2023-04-03T15:35:06;2.83;;;0.90;;
43670;SDS011;29267;50.906;7.248;2023-04-03T15:37:32;3.13;;;0.80;;
43670;SDS011;29267;50.906;7.248;2023-04-03T15:39:58;3.50;;;1.10;;
43670;SDS011;29267;50.906;7.248;2023-04-03T15:42:23;1.48;;;0.60;;
43670;SDS011;29267;50.906;7.248;2023-04-03T15:44:49;1.92;;;0.80;;
43670;SDS011;29267;50.906;7.248;2023-04-03T15:47:15;2.83;;;1.20;;
43670;SDS011;29267;50.906;7.248;2023-04-03T15:49:40;2.65;;;0.82;;
43670;SDS011;29267;50.906;7.248;2023-04-03T15:52:06;2.97;;;1.08;;
43670;SDS011;29267;50.906;7.248;2023-04-03T15:54:32;0.75;;;0.60;;
43670;SDS011;29267;50.906;7.248;2023-04-03T15:56:57;4.35;;;1.48;;
43670;SDS011;29267;50.906;7.248;2023-04-03T15:59:23;6.32;;;1.05;;
43670;SDS011;29267;50.906;7.248;2023-04-03T16:01:49;9.73;;;1.35;;
43670;SDS011;29267;50.906;7.248;2023-04-03T16:04:16;1.65;;;0.75;;
43670;SDS011;29267;50.906;7.248;2023-04-03T16:06:42;1.08;;;0.77;;
43670;SDS011;29267;50.906;7.248;2023-04-03T16:09:08;1.70;;;0.75;;
43670;SDS011;29267;50.906;7.248;2023-04-03T16:11:35;4.07;;;1.33;;
43670;SDS011;29267;50.906;7.248;2023-04-03T16:14:02;3.55;;;1.25;;
43670;SDS011;29267;50.906;7.248;2023-04-03T16:16:27;2.05;;;0.90;;
43670;SDS011;29267;50.906;7.248;2023-04-03T16:18:55;4.82;;;1.05;;
43670;SDS011;29267;50.906;7.248;2023-04-03T16:21:21;2.70;;;1.02;;
43670;SDS011;29267;50.906;7.248;2023-04-03T16:23:47;3.67;;;1.23;;
43670;SDS011;29267;50.906;7.248;2023-04-03T16:26:13;2.05;;;0.90;;
43670;SDS011;29267;50.906;7.248;2023-04-03T16:28:39;2.75;;;0.98;;
43670;SDS011;29267;50.906;7.248;2023-04-03T16:31:05;2.88;;;1.20;;
43670;SDS011;29267;50.906;7.248;2023-04-03T16:33:32;4.53;;;0.80;;
43670;SDS011;29267;50.906;7.248;2023-04-03T16:35:58;3.92;;;0.70;;
43670;SDS011;29267;50.906;7.248;2023-04-03T16:38:23;2.30;;;0.85;;
43670;SDS011;29267;50.906;7.248;2023-04-03T16:40:49;2.45;;;0.88;;
43670;SDS011;29267;50.906;7.248;2023-04-03T16:43:15;2.50;;;1.48;;
43670;SDS011;29267;50.906;7.248;2023-04-03T16:45:41;3.55;;;1.10;;
43670;SDS011;29267;50.906;7.248;2023-04-03T16:48:07;1.42;;;0.80;;
43670;SDS011;29267;50.906;7.248;2023-04-03T16:50:33;8.05;;;1.35;;
43670;SDS011;29267;50.906;7.248;2023-04-03T16:52:58;1.92;;;1.00;;
43670;SDS011;29267;50.906;7.248;2023-04-03T16:55:24;3.67;;;0.90;;
43670;SDS011;29267;50.906;7.248;2023-04-03T16:57:50;15.65;;;1.40;;
43670;SDS011;29267;50.906;7.248;2023-04-03T17:00:16;4.50;;;1.05;;